sensor_id;sensor_type;location;lat;lon;timestamp;temperature;humidity
7684;DHT22;3884;48.616;12.872;2023-10-19T00:00:12;8.30;99.90
7684;DHT22;3884;48.616;12.872;2023-10-19T00:02:50;8.30;99.90
7684;DHT22;3884;48.616;12.872;2023-10-19T00:05:20;8.30;1.00
7684;DHT22;3884;48.616;12.872;2023-10-19T00:07:47;8.30;99.90
7684;DHT22;3884;48.616;12.872;2023-10-19T00:10:15;8.30;1.00
7684;DHT22;3884;48.616;12.872;2023-10-19T00:12:43;8.20;1.00
7684;DHT22;3884;48.616;12.872;2023-10-19T00:15:10;8.20;1.00
7684;DHT22;3884;48.616;12.872;2023-10-19T00:17:39;8.40;1.00
7684;DHT22;3884;48.616;12.872;2023-10-19T00:20:10;8.30;99.90
7684;DHT22;3884;48.616;12.872;2023-10-19T00:22:51;8.20;1.00
7684;DHT22;3884;48.616;12.872;2023-10-19T00:25:20;8.20;1.00
7684;DHT22;3884;48.616;12.872;2023-10-19T00:27:50;8.40;99.90
7684;DHT22;3884;48.616;12.872;2023-10-19T00:30:17;8.30;1.00
7684;DHT22;3884;48.616;12.872;2023-10-19T00:32:49;8.40;1.00
7684;DHT22;3884;48.616;12.872;2023-10-19T00:35:18;8.30;1.00
7684;DHT22;3884;48.616;12.872;2023-10-19T00:37:59;8.30;99.90
7684;DHT22;3884;48.616;12.872;2023-10-19T00:40:51;8.30;99.90
7684;DHT22;3884;48.616;12.872;2023-10-19T00:43:33;8.30;99.90
7684;DHT22;3884;48.616;12.872;2023-10-19T00:46:16;8.20;99.90
7684;DHT22;3884;48.616;12.872;2023-10-19T00:48:59;8.30;99.90
7684;DHT22;3884;48.616;12.872;2023-10-19T00:51:29;8.30;99.90
7684;DHT22;3884;48.616;12.872;2023-10-19T00:54:10;8.30;99.90
7684;DHT22;3884;48.616;12.872;2023-10-19T01:06:04;8.30;94.80
7684;DHT22;3884;48.616;12.872;2023-10-19T01:08:45;8.30;30.40
7684;DHT22;3884;48.616;12.872;2023-10-19T01:11:26;8.20;99.90
7684;DHT22;3884;48.616;12.872;2023-10-19T01:14:19;8.20;99.90
7684;DHT22;3884;48.616;12.872;2023-10-19T01:17:00;8.20;99.90
7684;DHT22;3884;48.616;12.872;2023-10-19T01:19:41;8.20;99.90
7684;DHT22;3884;48.616;12.872;2023-10-19T01:22:24;8.30;1.00
7684;DHT22;3884;48.616;12.872;2023-10-19T01:28:22;8.00;1.00
7684;DHT22;3884;48.616;12.872;2023-10-19T01:31:03;7.90;66.10
7684;DHT22;3884;48.616;12.872;2023-10-19T01:33:44;8.00;1.00
7684;DHT22;3884;48.616;12.872;2023-10-19T01:36:14;8.00;1.00
7684;DHT22;3884;48.616;12.872;2023-10-19T01:38:56;8.00;1.00
7684;DHT22;3884;48.616;12.872;2023-10-19T01:41:38;7.90;1.00
7684;DHT22;3884;48.616;12.872;2023-10-19T01:44:23;7.90;1.00
7684;DHT22;3884;48.616;12.872;2023-10-19T01:46:51;7.90;1.00
7684;DHT22;3884;48.616;12.872;2023-10-19T01:49:17;7.80;1.00
7684;DHT22;3884;48.616;12.872;2023-10-19T01:51:57;7.90;58.30
7684;DHT22;3884;48.616;12.872;2023-10-19T01:54:38;7.80;1.00
7684;DHT22;3884;48.616;12.872;2023-10-19T01:57:19;7.90;1.00
7684;DHT22;3884;48.616;12.872;2023-10-19T02:06:42;7.50;1.00
7684;DHT22;3884;48.616;12.872;2023-10-19T02:09:12;7.40;99.90
7684;DHT22;3884;48.616;12.872;2023-10-19T02:11:43;7.40;1.00
7684;DHT22;3884;48.616;12.872;2023-10-19T02:14:26;7.60;99.90
7684;DHT22;3884;48.616;12.872;2023-10-19T02:17:07;7.40;99.90
7684;DHT22;3884;48.616;12.872;2023-10-19T02:19:48;7.40;99.90
7684;DHT22;3884;48.616;12.872;2023-10-19T02:25:56;7.40;99.90
7684;DHT22;3884;48.616;12.872;2023-10-19T02:28:37;7.40;99.90
7684;DHT22;3884;48.616;12.872;2023-10-19T02:31:19;7.40;99.90
7684;DHT22;3884;48.616;12.872;2023-10-19T02:33:49;7.40;99.90
7684;DHT22;3884;48.616;12.872;2023-10-19T02:36:17;7.40;99.90
7684;DHT22;3884;48.616;12.872;2023-10-19T02:39:01;7.50;1.00
7684;DHT22;3884;48.616;12.872;2023-10-19T02:41:53;7.50;1.00
7684;DHT22;3884;48.616;12.872;2023-10-19T02:44:21;7.50;1.00
7684;DHT22;3884;48.616;12.872;2023-10-19T02:47:02;7.50;1.00
7684;DHT22;3884;48.616;12.872;2023-10-19T02:49:43;7.50;99.90
7684;DHT22;3884;48.616;12.872;2023-10-19T02:52:23;7.40;99.90
7684;DHT22;3884;48.616;12.872;2023-10-19T02:54:53;7.50;99.90
7684;DHT22;3884;48.616;12.872;2023-10-19T02:57:24;7.70;99.90
7684;DHT22;3884;48.616;12.872;2023-10-19T02:59:50;7.50;1.00
7684;DHT22;3884;48.616;12.872;2023-10-19T03:02:22;7.50;99.90
7684;DHT22;3884;48.616;12.872;2023-10-19T03:04:48;7.50;1.00
7684;DHT22;3884;48.616;12.872;2023-10-19T03:07:15;7.60;1.00
7684;DHT22;3884;48.616;12.872;2023-10-19T03:09:47;7.50;99.90
7684;DHT22;3884;48.616;12.872;2023-10-19T03:12:35;7.50;1.00
7684;DHT22;3884;48.616;12.872;2023-10-19T03:15:16;7.70;1.00
7684;DHT22;3884;48.616;12.872;2023-10-19T03:17:57;7.60;99.90
7684;DHT22;3884;48.616;12.872;2023-10-19T03:20:38;7.60;99.90
7684;DHT22;3884;48.616;12.872;2023-10-19T03:23:19;7.50;1.00
7684;DHT22;3884;48.616;12.872;2023-10-19T03:26:00;7.70;99.90
7684;DHT22;3884;48.616;12.872;2023-10-19T03:29:16;7.70;1.00
7684;DHT22;3884;48.616;12.872;2023-10-19T03:31:58;7.80;99.90
7684;DHT22;3884;48.616;12.872;2023-10-19T03:34:38;7.70;1.00
7684;DHT22;3884;48.616;12.872;2023-10-19T03:37:19;7.80;99.90
7684;DHT22;3884;48.616;12.872;2023-10-19T03:40:00;7.80;99.90
7684;DHT22;3884;48.616;12.872;2023-10-19T03:42:41;7.80;99.90
7684;DHT22;3884;48.616;12.872;2023-10-19T04:08:51;7.80;99.90
7684;DHT22;3884;48.616;12.872;2023-10-19T04:11:22;7.70;99.90
7684;DHT22;3884;48.616;12.872;2023-10-19T04:13:58;7.80;99.90
7684;DHT22;3884;48.616;12.872;2023-10-19T04:16:29;7.80;99.90
7684;DHT22;3884;48.616;12.872;2023-10-19T04:18:56;7.90;99.90
7684;DHT22;3884;48.616;12.872;2023-10-19T04:21:24;7.90;99.90
7684;DHT22;3884;48.616;12.872;2023-10-19T04:23:52;7.90;88.60
7684;DHT22;3884;48.616;12.872;2023-10-19T04:26:19;7.90;99.90
7684;DHT22;3884;48.616;12.872;2023-10-19T04:28:46;7.70;1.00
7684;DHT22;3884;48.616;12.872;2023-10-19T04:31:17;7.70;1.00
7684;DHT22;3884;48.616;12.872;2023-10-19T04:33:46;7.70;1.00
7684;DHT22;3884;48.616;12.872;2023-10-19T04:36:14;7.80;1.00
7684;DHT22;3884;48.616;12.872;2023-10-19T04:38:42;7.80;99.90
7684;DHT22;3884;48.616;12.872;2023-10-19T04:41:12;7.70;1.00
7684;DHT22;3884;48.616;12.872;2023-10-19T04:43:40;7.70;1.00
7684;DHT22;3884;48.616;12.872;2023-10-19T04:46:16;7.50;99.90
7684;DHT22;3884;48.616;12.872;2023-10-19T04:48:44;7.60;99.90
7684;DHT22;3884;48.616;12.872;2023-10-19T04:51:11;7.60;99.90
7684;DHT22;3884;48.616;12.872;2023-10-19T04:53:43;7.60;1.00
7684;DHT22;3884;48.616;12.872;2023-10-19T04:56:10;7.60;1.00
7684;DHT22;3884;48.616;12.872;2023-10-19T04:58:41;7.60;1.00
7684;DHT22;3884;48.616;12.872;2023-10-19T05:01:09;7.50;99.90
7684;DHT22;3884;48.616;12.872;2023-10-19T05:03:37;7.60;99.90
7684;DHT22;3884;48.616;12.872;2023-10-19T05:06:04;7.60;99.90
7684;DHT22;3884;48.616;12.872;2023-10-19T05:08:31;7.60;1.00
7684;DHT22;3884;48.616;12.872;2023-10-19T05:11:00;7.60;99.90
7684;DHT22;3884;48.616;12.872;2023-10-19T05:13:30;7.60;98.10
7684;DHT22;3884;48.616;12.872;2023-10-19T05:16:00;7.70;55.30
7684;DHT22;3884;48.616;12.872;2023-10-19T05:18:29;7.70;72.00
7684;DHT22;3884;48.616;12.872;2023-10-19T05:20:56;7.70;1.00
7684;DHT22;3884;48.616;12.872;2023-10-19T05:23:25;7.70;99.90
7684;DHT22;3884;48.616;12.872;2023-10-19T05:25:54;7.70;96.50
7684;DHT22;3884;48.616;12.872;2023-10-19T05:28:26;7.80;1.00
7684;DHT22;3884;48.616;12.872;2023-10-19T05:31:01;7.80;1.00
7684;DHT22;3884;48.616;12.872;2023-10-19T05:33:30;7.80;1.00
7684;DHT22;3884;48.616;12.872;2023-10-19T05:35:58;7.90;96.40
7684;DHT22;3884;48.616;12.872;2023-10-19T05:38:29;8.10;1.00
7684;DHT22;3884;48.616;12.872;2023-10-19T05:41:15;7.90;1.00
7684;DHT22;3884;48.616;12.872;2023-10-19T05:44:00;7.90;1.00
7684;DHT22;3884;48.616;12.872;2023-10-19T05:46:33;7.90;1.00
7684;DHT22;3884;48.616;12.872;2023-10-19T05:49:00;7.90;1.00
7684;DHT22;3884;48.616;12.872;2023-10-19T05:51:29;8.00;99.90
7684;DHT22;3884;48.616;12.872;2023-10-19T05:54:00;8.00;1.00
7684;DHT22;3884;48.616;12.872;2023-10-19T05:56:28;7.90;1.00
7684;DHT22;3884;48.616;12.872;2023-10-19T05:58:56;7.90;99.90
7684;DHT22;3884;48.616;12.872;2023-10-19T06:01:23;8.00;1.00
7684;DHT22;3884;48.616;12.872;2023-10-19T06:03:52;7.90;99.90
7684;DHT22;3884;48.616;12.872;2023-10-19T06:06:19;8.00;99.90
7684;DHT22;3884;48.616;12.872;2023-10-19T06:08:47;8.00;1.00
7684;DHT22;3884;48.616;12.872;2023-10-19T06:11:15;8.00;99.90
7684;DHT22;3884;48.616;12.872;2023-10-19T06:13:42;8.00;1.00
7684;DHT22;3884;48.616;12.872;2023-10-19T06:16:09;8.00;46.70
7684;DHT22;3884;48.616;12.872;2023-10-19T06:18:36;7.90;99.90
7684;DHT22;3884;48.616;12.872;2023-10-19T06:21:19;7.90;1.00
7684;DHT22;3884;48.616;12.872;2023-10-19T06:24:00;8.10;99.90
7684;DHT22;3884;48.616;12.872;2023-10-19T06:26:28;8.00;99.90
7684;DHT22;3884;48.616;12.872;2023-10-19T06:28:55;8.10;22.40
7684;DHT22;3884;48.616;12.872;2023-10-19T06:31:24;8.20;1.00
7684;DHT22;3884;48.616;12.872;2023-10-19T06:33:52;8.10;43.70
7684;DHT22;3884;48.616;12.872;2023-10-19T06:36:21;8.10;1.00
7684;DHT22;3884;48.616;12.872;2023-10-19T06:38:51;8.20;1.80
7684;DHT22;3884;48.616;12.872;2023-10-19T06:41:20;8.30;1.00
7684;DHT22;3884;48.616;12.872;2023-10-19T06:43:50;8.20;1.00
7684;DHT22;3884;48.616;12.872;2023-10-19T06:46:19;8.20;1.00
7684;DHT22;3884;48.616;12.872;2023-10-19T06:48:47;8.20;99.90
7684;DHT22;3884;48.616;12.872;2023-10-19T06:51:15;8.30;99.90
7684;DHT22;3884;48.616;12.872;2023-10-19T06:54:04;8.40;1.00
7684;DHT22;3884;48.616;12.872;2023-10-19T06:56:35;8.40;1.00
7684;DHT22;3884;48.616;12.872;2023-10-19T06:59:04;8.60;99.90
7684;DHT22;3884;48.616;12.872;2023-10-19T07:05:00;8.40;99.90
7684;DHT22;3884;48.616;12.872;2023-10-19T07:07:28;8.50;99.90
7684;DHT22;3884;48.616;12.872;2023-10-19T07:09:58;8.50;99.90
7684;DHT22;3884;48.616;12.872;2023-10-19T07:12:26;8.50;1.00
7684;DHT22;3884;48.616;12.872;2023-10-19T07:14:54;8.70;99.90
7684;DHT22;3884;48.616;12.872;2023-10-19T07:17:37;8.60;99.90
7684;DHT22;3884;48.616;12.872;2023-10-19T07:20:05;8.70;1.00
7684;DHT22;3884;48.616;12.872;2023-10-19T07:22:35;8.70;99.90
7684;DHT22;3884;48.616;12.872;2023-10-19T07:25:16;8.50;1.00
7684;DHT22;3884;48.616;12.872;2023-10-19T07:27:46;8.60;99.90
7684;DHT22;3884;48.616;12.872;2023-10-19T07:30:13;8.40;99.90
7684;DHT22;3884;48.616;12.872;2023-10-19T07:33:07;8.40;1.00
7684;DHT22;3884;48.616;12.872;2023-10-19T07:35:55;8.30;1.00
7684;DHT22;3884;48.616;12.872;2023-10-19T07:38:50;8.50;99.90
7684;DHT22;3884;48.616;12.872;2023-10-19T07:41:46;9.00;99.90
7684;DHT22;3884;48.616;12.872;2023-10-19T07:44:20;8.70;99.90
7684;DHT22;3884;48.616;12.872;2023-10-19T07:46:48;8.80;99.90
7684;DHT22;3884;48.616;12.872;2023-10-19T07:49:16;8.80;99.90
7684;DHT22;3884;48.616;12.872;2023-10-19T07:51:46;8.80;28.50
7684;DHT22;3884;48.616;12.872;2023-10-19T07:54:15;8.90;96.70
7684;DHT22;3884;48.616;12.872;2023-10-19T07:56:42;9.00;1.00
7684;DHT22;3884;48.616;12.872;2023-10-19T07:59:11;9.00;1.00
7684;DHT22;3884;48.616;12.872;2023-10-19T08:01:42;9.10;1.00
7684;DHT22;3884;48.616;12.872;2023-10-19T08:04:10;9.10;1.00
7684;DHT22;3884;48.616;12.872;2023-10-19T08:06:38;9.10;7.20
7684;DHT22;3884;48.616;12.872;2023-10-19T08:09:05;9.20;99.90
7684;DHT22;3884;48.616;12.872;2023-10-19T08:11:32;9.10;99.90
7684;DHT22;3884;48.616;12.872;2023-10-19T08:13:59;9.20;99.90
7684;DHT22;3884;48.616;12.872;2023-10-19T08:16:28;9.30;68.80
7684;DHT22;3884;48.616;12.872;2023-10-19T08:18:55;9.40;97.40
7684;DHT22;3884;48.616;12.872;2023-10-19T08:21:21;9.50;65.70
7684;DHT22;3884;48.616;12.872;2023-10-19T08:23:48;9.60;49.60
7684;DHT22;3884;48.616;12.872;2023-10-19T08:26:15;9.60;51.50
7684;DHT22;3884;48.616;12.872;2023-10-19T08:28:43;9.80;20.60
7684;DHT22;3884;48.616;12.872;2023-10-19T08:31:12;9.80;1.00
7684;DHT22;3884;48.616;12.872;2023-10-19T08:33:41;9.80;1.00
7684;DHT22;3884;48.616;12.872;2023-10-19T08:36:17;10.00;1.00
7684;DHT22;3884;48.616;12.872;2023-10-19T08:38:45;10.10;1.00
7684;DHT22;3884;48.616;12.872;2023-10-19T08:41:12;10.30;1.00
7684;DHT22;3884;48.616;12.872;2023-10-19T08:43:39;10.40;1.00
7684;DHT22;3884;48.616;12.872;2023-10-19T08:46:08;10.20;99.90
7684;DHT22;3884;48.616;12.872;2023-10-19T08:48:38;10.20;99.90
7684;DHT22;3884;48.616;12.872;2023-10-19T08:51:09;10.30;1.00
7684;DHT22;3884;48.616;12.872;2023-10-19T08:53:37;10.40;1.00
7684;DHT22;3884;48.616;12.872;2023-10-19T08:56:06;10.50;1.00
7684;DHT22;3884;48.616;12.872;2023-10-19T08:58:34;10.60;99.90
7684;DHT22;3884;48.616;12.872;2023-10-19T09:01:02;10.60;99.90
7684;DHT22;3884;48.616;12.872;2023-10-19T09:03:35;10.80;99.90
7684;DHT22;3884;48.616;12.872;2023-10-19T09:06:07;10.90;99.90
7684;DHT22;3884;48.616;12.872;2023-10-19T09:08:34;11.00;99.90
7684;DHT22;3884;48.616;12.872;2023-10-19T09:11:07;11.00;98.00
7684;DHT22;3884;48.616;12.872;2023-10-19T09:13:44;11.10;99.90
7684;DHT22;3884;48.616;12.872;2023-10-19T09:16:14;11.20;1.00
7684;DHT22;3884;48.616;12.872;2023-10-19T09:18:41;11.30;1.00
7684;DHT22;3884;48.616;12.872;2023-10-19T09:21:09;11.30;1.00
7684;DHT22;3884;48.616;12.872;2023-10-19T09:23:38;11.40;1.00
7684;DHT22;3884;48.616;12.872;2023-10-19T09:26:06;11.40;17.80
7684;DHT22;3884;48.616;12.872;2023-10-19T09:28:37;11.50;1.00
7684;DHT22;3884;48.616;12.872;2023-10-19T09:31:06;11.60;1.00
7684;DHT22;3884;48.616;12.872;2023-10-19T09:33:35;11.60;1.00
7684;DHT22;3884;48.616;12.872;2023-10-19T09:36:03;11.80;1.00
7684;DHT22;3884;48.616;12.872;2023-10-19T09:38:43;11.80;1.00
7684;DHT22;3884;48.616;12.872;2023-10-19T09:41:12;11.90;1.00
7684;DHT22;3884;48.616;12.872;2023-10-19T09:43:43;12.00;1.00
7684;DHT22;3884;48.616;12.872;2023-10-19T09:46:11;12.10;1.00
7684;DHT22;3884;48.616;12.872;2023-10-19T09:48:40;12.00;1.00
7684;DHT22;3884;48.616;12.872;2023-10-19T09:51:09;12.00;1.00
7684;DHT22;3884;48.616;12.872;2023-10-19T09:53:39;12.00;1.00
7684;DHT22;3884;48.616;12.872;2023-10-19T09:56:12;12.00;1.00
7684;DHT22;3884;48.616;12.872;2023-10-19T09:58:46;11.90;1.00
7684;DHT22;3884;48.616;12.872;2023-10-19T10:01:15;12.00;1.00
7684;DHT22;3884;48.616;12.872;2023-10-19T10:03:48;12.10;1.00
7684;DHT22;3884;48.616;12.872;2023-10-19T10:06:30;12.10;1.00
7684;DHT22;3884;48.616;12.872;2023-10-19T10:09:09;12.10;1.00
7684;DHT22;3884;48.616;12.872;2023-10-19T10:11:37;12.10;1.00
7684;DHT22;3884;48.616;12.872;2023-10-19T10:14:20;12.20;1.00
7684;DHT22;3884;48.616;12.872;2023-10-19T10:16:59;12.30;1.00
7684;DHT22;3884;48.616;12.872;2023-10-19T10:19:26;12.30;1.00
7684;DHT22;3884;48.616;12.872;2023-10-19T10:22:09;12.30;1.00
7684;DHT22;3884;48.616;12.872;2023-10-19T10:24:41;12.30;1.00
7684;DHT22;3884;48.616;12.872;2023-10-19T10:27:08;12.40;1.00
7684;DHT22;3884;48.616;12.872;2023-10-19T10:29:54;12.50;1.00
7684;DHT22;3884;48.616;12.872;2023-10-19T10:32:45;12.60;1.00
7684;DHT22;3884;48.616;12.872;2023-10-19T10:38:18;12.80;1.00
7684;DHT22;3884;48.616;12.872;2023-10-19T10:40:47;13.00;1.00
7684;DHT22;3884;48.616;12.872;2023-10-19T10:43:14;13.00;1.00
7684;DHT22;3884;48.616;12.872;2023-10-19T10:45:42;13.10;1.00
7684;DHT22;3884;48.616;12.872;2023-10-19T10:48:13;13.40;1.00
7684;DHT22;3884;48.616;12.872;2023-10-19T10:50:40;13.40;1.00
7684;DHT22;3884;48.616;12.872;2023-10-19T10:53:08;13.30;1.00
7684;DHT22;3884;48.616;12.872;2023-10-19T10:55:37;13.30;1.00
7684;DHT22;3884;48.616;12.872;2023-10-19T10:58:08;13.30;1.00
7684;DHT22;3884;48.616;12.872;2023-10-19T11:00:42;13.40;1.00
7684;DHT22;3884;48.616;12.872;2023-10-19T11:03:10;13.40;1.00
7684;DHT22;3884;48.616;12.872;2023-10-19T11:05:37;13.30;1.00
7684;DHT22;3884;48.616;12.872;2023-10-19T11:08:08;13.30;1.00
7684;DHT22;3884;48.616;12.872;2023-10-19T11:10:39;13.40;1.00
7684;DHT22;3884;48.616;12.872;2023-10-19T11:13:11;13.30;1.00
7684;DHT22;3884;48.616;12.872;2023-10-19T11:15:49;13.40;1.00
7684;DHT22;3884;48.616;12.872;2023-10-19T11:18:28;13.30;1.00
7684;DHT22;3884;48.616;12.872;2023-10-19T11:20:56;13.30;1.00
7684;DHT22;3884;48.616;12.872;2023-10-19T11:23:36;13.20;1.00
7684;DHT22;3884;48.616;12.872;2023-10-19T11:26:03;13.30;1.00
7684;DHT22;3884;48.616;12.872;2023-10-19T11:28:32;13.10;1.00
7684;DHT22;3884;48.616;12.872;2023-10-19T11:31:13;13.00;1.00
7684;DHT22;3884;48.616;12.872;2023-10-19T11:33:41;13.00;1.00
7684;DHT22;3884;48.616;12.872;2023-10-19T11:36:09;13.00;1.00
7684;DHT22;3884;48.616;12.872;2023-10-19T11:38:39;13.00;1.00
7684;DHT22;3884;48.616;12.872;2023-10-19T11:41:06;12.90;1.00
7684;DHT22;3884;48.616;12.872;2023-10-19T11:43:38;12.90;1.00
7684;DHT22;3884;48.616;12.872;2023-10-19T11:46:10;12.80;99.90
7684;DHT22;3884;48.616;12.872;2023-10-19T11:48:38;12.60;99.90
7684;DHT22;3884;48.616;12.872;2023-10-19T11:51:08;12.70;1.00
7684;DHT22;3884;48.616;12.872;2023-10-19T11:53:37;12.60;1.00
7684;DHT22;3884;48.616;12.872;2023-10-19T11:56:07;12.60;1.00
7684;DHT22;3884;48.616;12.872;2023-10-19T11:58:36;12.60;1.00
7684;DHT22;3884;48.616;12.872;2023-10-19T12:01:06;12.60;1.00
7684;DHT22;3884;48.616;12.872;2023-10-19T12:03:34;12.70;1.00
7684;DHT22;3884;48.616;12.872;2023-10-19T12:06:03;12.80;1.00
7684;DHT22;3884;48.616;12.872;2023-10-19T12:08:32;12.80;1.00
7684;DHT22;3884;48.616;12.872;2023-10-19T12:10:59;12.80;1.00
7684;DHT22;3884;48.616;12.872;2023-10-19T12:13:27;12.80;1.00
7684;DHT22;3884;48.616;12.872;2023-10-19T12:15:56;12.90;1.00
7684;DHT22;3884;48.616;12.872;2023-10-19T12:18:23;12.90;99.90
7684;DHT22;3884;48.616;12.872;2023-10-19T12:20:52;12.90;99.90
7684;DHT22;3884;48.616;12.872;2023-10-19T12:23:22;13.00;99.90
7684;DHT22;3884;48.616;12.872;2023-10-19T12:25:49;12.90;99.90
7684;DHT22;3884;48.616;12.872;2023-10-19T12:28:16;12.90;99.90
7684;DHT22;3884;48.616;12.872;2023-10-19T12:30:43;12.90;99.90
7684;DHT22;3884;48.616;12.872;2023-10-19T12:33:11;13.00;99.90
7684;DHT22;3884;48.616;12.872;2023-10-19T12:35:40;13.10;99.90
7684;DHT22;3884;48.616;12.872;2023-10-19T12:38:11;13.20;92.80
7684;DHT22;3884;48.616;12.872;2023-10-19T12:40:45;13.30;14.60
7684;DHT22;3884;48.616;12.872;2023-10-19T12:43:13;13.50;1.00
7684;DHT22;3884;48.616;12.872;2023-10-19T12:45:40;13.80;1.00
7684;DHT22;3884;48.616;12.872;2023-10-19T12:48:07;13.80;1.00
7684;DHT22;3884;48.616;12.872;2023-10-19T12:50:39;13.80;1.00
7684;DHT22;3884;48.616;12.872;2023-10-19T12:53:11;13.80;1.00
7684;DHT22;3884;48.616;12.872;2023-10-19T12:55:39;13.70;1.00
7684;DHT22;3884;48.616;12.872;2023-10-19T12:58:09;13.60;1.00
7684;DHT22;3884;48.616;12.872;2023-10-19T13:00:38;13.60;1.00
7684;DHT22;3884;48.616;12.872;2023-10-19T13:03:10;13.50;1.00
7684;DHT22;3884;48.616;12.872;2023-10-19T13:05:47;13.40;64.10
7684;DHT22;3884;48.616;12.872;2023-10-19T13:08:17;13.40;50.20
7684;DHT22;3884;48.616;12.872;2023-10-19T13:10:46;13.30;17.70
7684;DHT22;3884;48.616;12.872;2023-10-19T13:13:14;13.30;99.90
7684;DHT22;3884;48.616;12.872;2023-10-19T13:15:43;13.30;99.90
7684;DHT22;3884;48.616;12.872;2023-10-19T13:18:11;13.30;99.90
7684;DHT22;3884;48.616;12.872;2023-10-19T13:20:47;13.40;98.20
7684;DHT22;3884;48.616;12.872;2023-10-19T13:23:14;13.40;99.90
7684;DHT22;3884;48.616;12.872;2023-10-19T13:25:42;13.40;1.00
7684;DHT22;3884;48.616;12.872;2023-10-19T13:28:16;13.50;1.00
7684;DHT22;3884;48.616;12.872;2023-10-19T13:30:46;13.40;1.00
7684;DHT22;3884;48.616;12.872;2023-10-19T13:33:15;13.40;19.30
7684;DHT22;3884;48.616;12.872;2023-10-19T13:35:44;13.40;1.00
7684;DHT22;3884;48.616;12.872;2023-10-19T13:38:12;13.40;1.00
7684;DHT22;3884;48.616;12.872;2023-10-19T13:40:40;13.30;5.10
7684;DHT22;3884;48.616;12.872;2023-10-19T13:43:11;13.30;98.00
7684;DHT22;3884;48.616;12.872;2023-10-19T13:45:41;13.30;99.90
7684;DHT22;3884;48.616;12.872;2023-10-19T13:48:10;13.40;41.60
7684;DHT22;3884;48.616;12.872;2023-10-19T13:50:42;13.40;55.40
7684;DHT22;3884;48.616;12.872;2023-10-19T13:53:09;13.40;99.90
7684;DHT22;3884;48.616;12.872;2023-10-19T13:55:38;13.40;1.00
7684;DHT22;3884;48.616;12.872;2023-10-19T13:58:05;13.40;99.90
7684;DHT22;3884;48.616;12.872;2023-10-19T14:00:33;13.40;99.90
7684;DHT22;3884;48.616;12.872;2023-10-19T14:03:06;13.50;99.90
7684;DHT22;3884;48.616;12.872;2023-10-19T14:05:38;13.50;99.90
7684;DHT22;3884;48.616;12.872;2023-10-19T14:08:05;13.60;99.90
7684;DHT22;3884;48.616;12.872;2023-10-19T14:10:33;13.70;99.90
7684;DHT22;3884;48.616;12.872;2023-10-19T14:13:01;13.70;99.90
7684;DHT22;3884;48.616;12.872;2023-10-19T14:15:30;13.70;99.90
7684;DHT22;3884;48.616;12.872;2023-10-19T14:18:00;13.70;99.90
7684;DHT22;3884;48.616;12.872;2023-10-19T14:20:29;13.70;99.90
7684;DHT22;3884;48.616;12.872;2023-10-19T14:23:00;13.70;75.20
7684;DHT22;3884;48.616;12.872;2023-10-19T14:25:28;13.70;45.50
7684;DHT22;3884;48.616;12.872;2023-10-19T14:27:55;13.70;99.90
7684;DHT22;3884;48.616;12.872;2023-10-19T14:30:28;13.70;19.10
7684;DHT22;3884;48.616;12.872;2023-10-19T14:32:55;13.80;99.90
7684;DHT22;3884;48.616;12.872;2023-10-19T14:35:23;13.80;81.30
7684;DHT22;3884;48.616;12.872;2023-10-19T14:37:51;14.00;99.90
7684;DHT22;3884;48.616;12.872;2023-10-19T14:40:25;13.80;1.00
7684;DHT22;3884;48.616;12.872;2023-10-19T14:42:54;13.70;1.00
7684;DHT22;3884;48.616;12.872;2023-10-19T14:45:24;13.60;1.00
7684;DHT22;3884;48.616;12.872;2023-10-19T14:47:56;13.50;39.70
7684;DHT22;3884;48.616;12.872;2023-10-19T14:50:23;13.40;1.00
7684;DHT22;3884;48.616;12.872;2023-10-19T14:52:52;13.40;1.00
7684;DHT22;3884;48.616;12.872;2023-10-19T14:55:20;13.40;1.00
7684;DHT22;3884;48.616;12.872;2023-10-19T14:57:49;13.40;99.90
7684;DHT22;3884;48.616;12.872;2023-10-19T15:00:18;13.30;99.90
7684;DHT22;3884;48.616;12.872;2023-10-19T15:02:49;13.30;99.90
7684;DHT22;3884;48.616;12.872;2023-10-19T15:05:18;13.20;99.90
7684;DHT22;3884;48.616;12.872;2023-10-19T15:07:46;13.20;99.90
7684;DHT22;3884;48.616;12.872;2023-10-19T15:10:17;13.10;99.90
7684;DHT22;3884;48.616;12.872;2023-10-19T15:12:44;13.10;99.90
7684;DHT22;3884;48.616;12.872;2023-10-19T15:15:12;13.10;99.90
7684;DHT22;3884;48.616;12.872;2023-10-19T15:17:39;13.10;99.90
7684;DHT22;3884;48.616;12.872;2023-10-19T15:20:07;13.10;1.00
7684;DHT22;3884;48.616;12.872;2023-10-19T15:22:37;13.00;1.00
7684;DHT22;3884;48.616;12.872;2023-10-19T15:25:04;12.90;94.90
7684;DHT22;3884;48.616;12.872;2023-10-19T15:27:33;13.00;1.00
7684;DHT22;3884;48.616;12.872;2023-10-19T15:30:00;13.10;1.00
7684;DHT22;3884;48.616;12.872;2023-10-19T15:32:27;13.10;1.00
7684;DHT22;3884;48.616;12.872;2023-10-19T15:34:56;13.20;1.00
7684;DHT22;3884;48.616;12.872;2023-10-19T15:37:23;13.20;99.90
7684;DHT22;3884;48.616;12.872;2023-10-19T15:39:51;13.20;1.00
7684;DHT22;3884;48.616;12.872;2023-10-19T15:42:19;13.20;1.00
7684;DHT22;3884;48.616;12.872;2023-10-19T15:44:47;13.20;1.00
7684;DHT22;3884;48.616;12.872;2023-10-19T15:47:15;13.10;1.00
7684;DHT22;3884;48.616;12.872;2023-10-19T15:49:47;13.00;99.90
7684;DHT22;3884;48.616;12.872;2023-10-19T15:52:16;12.80;1.00
7684;DHT22;3884;48.616;12.872;2023-10-19T15:54:45;12.70;99.90
7684;DHT22;3884;48.616;12.872;2023-10-19T15:57:13;12.60;1.00
7684;DHT22;3884;48.616;12.872;2023-10-19T15:59:41;12.60;99.90
7684;DHT22;3884;48.616;12.872;2023-10-19T16:02:08;12.40;1.00
7684;DHT22;3884;48.616;12.872;2023-10-19T16:04:36;12.30;99.90
7684;DHT22;3884;48.616;12.872;2023-10-19T16:07:03;12.30;1.00
7684;DHT22;3884;48.616;12.872;2023-10-19T16:09:31;12.20;1.00
7684;DHT22;3884;48.616;12.872;2023-10-19T16:11:57;12.10;99.90
7684;DHT22;3884;48.616;12.872;2023-10-19T16:14:26;12.20;99.90
7684;DHT22;3884;48.616;12.872;2023-10-19T16:16:53;12.30;27.00
7684;DHT22;3884;48.616;12.872;2023-10-19T16:19:20;12.40;1.00
7684;DHT22;3884;48.616;12.872;2023-10-19T16:21:48;12.40;99.90
7684;DHT22;3884;48.616;12.872;2023-10-19T16:24:15;12.30;1.00
7684;DHT22;3884;48.616;12.872;2023-10-19T16:26:42;12.20;1.00
7684;DHT22;3884;48.616;12.872;2023-10-19T16:29:10;12.10;99.90
7684;DHT22;3884;48.616;12.872;2023-10-19T16:31:43;12.10;1.00
7684;DHT22;3884;48.616;12.872;2023-10-19T16:34:11;12.20;99.90
7684;DHT22;3884;48.616;12.872;2023-10-19T16:36:38;12.20;1.00
7684;DHT22;3884;48.616;12.872;2023-10-19T16:39:05;12.20;1.00
7684;DHT22;3884;48.616;12.872;2023-10-19T16:41:34;12.20;1.00
7684;DHT22;3884;48.616;12.872;2023-10-19T16:44:01;12.30;99.90
7684;DHT22;3884;48.616;12.872;2023-10-19T16:46:31;12.10;1.10
7684;DHT22;3884;48.616;12.872;2023-10-19T16:48:59;12.00;1.00
7684;DHT22;3884;48.616;12.872;2023-10-19T16:51:28;12.00;1.00
7684;DHT22;3884;48.616;12.872;2023-10-19T16:53:55;11.90;99.90
7684;DHT22;3884;48.616;12.872;2023-10-19T16:56:22;11.70;1.00
7684;DHT22;3884;48.616;12.872;2023-10-19T16:58:49;11.50;99.90
7684;DHT22;3884;48.616;12.872;2023-10-19T17:01:17;11.40;99.90
7684;DHT22;3884;48.616;12.872;2023-10-19T17:03:44;11.50;99.90
7684;DHT22;3884;48.616;12.872;2023-10-19T17:06:12;11.40;99.90
7684;DHT22;3884;48.616;12.872;2023-10-19T17:08:39;11.40;99.90
7684;DHT22;3884;48.616;12.872;2023-10-19T17:11:07;11.30;99.90
7684;DHT22;3884;48.616;12.872;2023-10-19T17:13:35;11.30;99.90
7684;DHT22;3884;48.616;12.872;2023-10-19T17:16:04;11.30;99.90
7684;DHT22;3884;48.616;12.872;2023-10-19T17:18:31;11.30;99.90
7684;DHT22;3884;48.616;12.872;2023-10-19T17:21:01;11.40;99.90